VTSE/CJM METAR and TAF weather

Enter ICAO airport designator
Station Type Date Time Source
VTSE METAR 2019/02/21 11:00 UTC NOAA

VTSE 211100Z 09006KT 9999 SCT020 29/23 Q1012 NOSIG


Station Type Date Time Source
VTSE Decoded METAR 2019/02/21 11:00 UTC NOAA

Station name not available
Feb 21, 2019 - 06:00 AM EST / 2019.02.21 1100 UTC
Wind: from the E (090 degrees) at 7 MPH (6 KT):0
Visibility: greater than 7 mile(s):0
Sky conditions: partly cloudy
Temperature: 84 F (29 C)
Dew Point: 73 F (23 C)
Relative Humidity: 70%
Pressure (altimeter): 29.88 in. Hg (1012 hPa)
ob: VTSE 211100Z 09006KT 9999 SCT020 29/23 Q1012 NOSIG
cycle: 11

Station Type Date Time Source
VTSE TAF 2019/02/21 12:00 UTC NOAA

TAF VTSE 211100Z 2112/2212 09005KT 9000 FEW020
BECMG 2120/2122 5000 BR
BECMG 2200/2202 9999 NSW


Example: see airport list